sensor_id;sensor_type;location;lat;lon;timestamp;temperature;humidity
66257;DHT22;53049;43.446;3.698;2023-06-10T00:00:13;22.10;99.90
66257;DHT22;53049;43.446;3.698;2023-06-10T00:02:40;22.10;99.90
66257;DHT22;53049;43.446;3.698;2023-06-10T00:05:07;22.00;99.90
66257;DHT22;53049;43.446;3.698;2023-06-10T00:07:34;22.00;99.90
66257;DHT22;53049;43.446;3.698;2023-06-10T00:10:06;21.80;99.90
66257;DHT22;53049;43.446;3.698;2023-06-10T00:12:33;21.70;99.90
66257;DHT22;53049;43.446;3.698;2023-06-10T00:15:04;21.70;99.90
66257;DHT22;53049;43.446;3.698;2023-06-10T00:17:30;21.60;99.90
66257;DHT22;53049;43.446;3.698;2023-06-10T00:19:56;21.50;99.90
66257;DHT22;53049;43.446;3.698;2023-06-10T00:22:23;21.40;99.90
66257;DHT22;53049;43.446;3.698;2023-06-10T00:24:49;21.30;99.90
66257;DHT22;53049;43.446;3.698;2023-06-10T00:27:16;21.30;99.90
66257;DHT22;53049;43.446;3.698;2023-06-10T00:29:42;21.20;99.90
66257;DHT22;53049;43.446;3.698;2023-06-10T00:32:07;21.20;99.90
66257;DHT22;53049;43.446;3.698;2023-06-10T00:34:33;21.10;99.90
66257;DHT22;53049;43.446;3.698;2023-06-10T00:36:59;21.00;99.90
66257;DHT22;53049;43.446;3.698;2023-06-10T00:39:26;20.90;99.90
66257;DHT22;53049;43.446;3.698;2023-06-10T00:41:51;20.90;99.90
66257;DHT22;53049;43.446;3.698;2023-06-10T00:44:17;20.80;99.90
66257;DHT22;53049;43.446;3.698;2023-06-10T00:46:43;20.80;99.90
66257;DHT22;53049;43.446;3.698;2023-06-10T00:49:09;20.70;99.90
66257;DHT22;53049;43.446;3.698;2023-06-10T00:51:35;20.60;99.90
66257;DHT22;53049;43.446;3.698;2023-06-10T00:54:02;20.60;99.90
66257;DHT22;53049;43.446;3.698;2023-06-10T00:56:28;20.60;99.90
66257;DHT22;53049;43.446;3.698;2023-06-10T00:58:54;20.50;99.90
66257;DHT22;53049;43.446;3.698;2023-06-10T01:01:20;20.40;99.90
66257;DHT22;53049;43.446;3.698;2023-06-10T01:03:46;20.30;99.90
66257;DHT22;53049;43.446;3.698;2023-06-10T01:09:13;20.30;99.90
66257;DHT22;53049;43.446;3.698;2023-06-10T01:11:48;20.30;99.90
66257;DHT22;53049;43.446;3.698;2023-06-10T01:14:17;20.20;99.90
66257;DHT22;53049;43.446;3.698;2023-06-10T01:16:44;20.20;99.90
66257;DHT22;53049;43.446;3.698;2023-06-10T01:19:11;20.20;99.90
66257;DHT22;53049;43.446;3.698;2023-06-10T01:21:38;20.30;99.90
66257;DHT22;53049;43.446;3.698;2023-06-10T01:24:04;20.30;99.90
66257;DHT22;53049;43.446;3.698;2023-06-10T01:26:34;20.20;99.90
66257;DHT22;53049;43.446;3.698;2023-06-10T01:29:11;20.20;99.90
66257;DHT22;53049;43.446;3.698;2023-06-10T01:34:18;20.10;99.90
66257;DHT22;53049;43.446;3.698;2023-06-10T01:36:48;20.10;99.90
66257;DHT22;53049;43.446;3.698;2023-06-10T01:39:16;20.10;99.90
66257;DHT22;53049;43.446;3.698;2023-06-10T01:41:42;20.10;99.90
66257;DHT22;53049;43.446;3.698;2023-06-10T01:44:09;20.10;99.90
66257;DHT22;53049;43.446;3.698;2023-06-10T01:46:34;20.00;99.90
66257;DHT22;53049;43.446;3.698;2023-06-10T01:49:00;19.90;99.90
66257;DHT22;53049;43.446;3.698;2023-06-10T01:51:26;19.90;99.90
66257;DHT22;53049;43.446;3.698;2023-06-10T01:53:52;19.90;99.90
66257;DHT22;53049;43.446;3.698;2023-06-10T01:56:17;19.90;99.90
66257;DHT22;53049;43.446;3.698;2023-06-10T01:58:45;19.90;99.90
66257;DHT22;53049;43.446;3.698;2023-06-10T02:01:11;19.90;99.90
66257;DHT22;53049;43.446;3.698;2023-06-10T02:03:37;19.90;99.90
66257;DHT22;53049;43.446;3.698;2023-06-10T02:06:02;19.90;99.90
66257;DHT22;53049;43.446;3.698;2023-06-10T02:08:28;19.90;99.90
66257;DHT22;53049;43.446;3.698;2023-06-10T02:10:54;19.90;99.90
66257;DHT22;53049;43.446;3.698;2023-06-10T02:13:19;19.90;99.90
66257;DHT22;53049;43.446;3.698;2023-06-10T02:15:45;19.80;99.90
66257;DHT22;53049;43.446;3.698;2023-06-10T02:18:11;19.80;99.90
66257;DHT22;53049;43.446;3.698;2023-06-10T02:20:38;19.70;99.90
66257;DHT22;53049;43.446;3.698;2023-06-10T02:23:03;19.70;99.90
66257;DHT22;53049;43.446;3.698;2023-06-10T02:25:29;19.60;99.90
66257;DHT22;53049;43.446;3.698;2023-06-10T02:27:55;19.70;99.90
66257;DHT22;53049;43.446;3.698;2023-06-10T02:30:21;19.60;99.90
66257;DHT22;53049;43.446;3.698;2023-06-10T02:32:46;19.60;99.90
66257;DHT22;53049;43.446;3.698;2023-06-10T02:35:16;19.60;99.90
66257;DHT22;53049;43.446;3.698;2023-06-10T02:37:42;19.70;99.90
66257;DHT22;53049;43.446;3.698;2023-06-10T02:40:09;19.70;99.90
66257;DHT22;53049;43.446;3.698;2023-06-10T02:42:34;19.70;99.90
66257;DHT22;53049;43.446;3.698;2023-06-10T02:45:00;19.70;99.90
66257;DHT22;53049;43.446;3.698;2023-06-10T02:47:26;19.70;99.90
66257;DHT22;53049;43.446;3.698;2023-06-10T02:49:51;19.60;99.90
66257;DHT22;53049;43.446;3.698;2023-06-10T02:52:17;19.70;99.90
66257;DHT22;53049;43.446;3.698;2023-06-10T02:54:43;19.70;99.90
66257;DHT22;53049;43.446;3.698;2023-06-10T02:57:08;19.70;99.90
66257;DHT22;53049;43.446;3.698;2023-06-10T02:59:35;19.70;99.90
66257;DHT22;53049;43.446;3.698;2023-06-10T03:02:01;19.70;99.90
66257;DHT22;53049;43.446;3.698;2023-06-10T03:04:27;19.70;99.90
66257;DHT22;53049;43.446;3.698;2023-06-10T03:06:54;19.60;99.90
66257;DHT22;53049;43.446;3.698;2023-06-10T03:09:20;19.70;99.90
66257;DHT22;53049;43.446;3.698;2023-06-10T03:11:46;19.60;99.90
66257;DHT22;53049;43.446;3.698;2023-06-10T03:14:11;19.60;99.90
66257;DHT22;53049;43.446;3.698;2023-06-10T03:16:37;19.60;99.90
66257;DHT22;53049;43.446;3.698;2023-06-10T03:19:06;19.60;99.90
66257;DHT22;53049;43.446;3.698;2023-06-10T03:21:33;19.60;99.90
66257;DHT22;53049;43.446;3.698;2023-06-10T03:23:59;19.60;99.90
66257;DHT22;53049;43.446;3.698;2023-06-10T03:26:26;19.60;99.90
66257;DHT22;53049;43.446;3.698;2023-06-10T03:28:52;19.50;99.90
66257;DHT22;53049;43.446;3.698;2023-06-10T03:31:18;19.50;99.90
66257;DHT22;53049;43.446;3.698;2023-06-10T03:33:44;19.60;99.90
66257;DHT22;53049;43.446;3.698;2023-06-10T03:36:10;19.60;99.90
66257;DHT22;53049;43.446;3.698;2023-06-10T03:38:36;19.50;99.90
66257;DHT22;53049;43.446;3.698;2023-06-10T03:41:02;19.50;99.90
66257;DHT22;53049;43.446;3.698;2023-06-10T03:43:27;19.50;99.90
66257;DHT22;53049;43.446;3.698;2023-06-10T03:45:53;19.40;99.90
66257;DHT22;53049;43.446;3.698;2023-06-10T03:48:19;19.40;99.90
66257;DHT22;53049;43.446;3.698;2023-06-10T03:50:45;19.40;99.90
66257;DHT22;53049;43.446;3.698;2023-06-10T03:53:12;19.40;99.90
66257;DHT22;53049;43.446;3.698;2023-06-10T03:55:38;19.30;99.90
66257;DHT22;53049;43.446;3.698;2023-06-10T03:58:04;19.30;99.90
66257;DHT22;53049;43.446;3.698;2023-06-10T04:00:29;19.40;99.90
66257;DHT22;53049;43.446;3.698;2023-06-10T04:03:08;19.40;99.90
66257;DHT22;53049;43.446;3.698;2023-06-10T04:05:35;19.40;99.90
66257;DHT22;53049;43.446;3.698;2023-06-10T04:08:00;19.50;99.90
66257;DHT22;53049;43.446;3.698;2023-06-10T04:10:27;19.50;99.90
66257;DHT22;53049;43.446;3.698;2023-06-10T04:12:53;19.60;99.90
66257;DHT22;53049;43.446;3.698;2023-06-10T04:15:19;19.60;99.90
66257;DHT22;53049;43.446;3.698;2023-06-10T04:17:45;19.60;99.90
66257;DHT22;53049;43.446;3.698;2023-06-10T04:20:11;19.60;99.90
66257;DHT22;53049;43.446;3.698;2023-06-10T04:22:36;19.60;99.90
66257;DHT22;53049;43.446;3.698;2023-06-10T04:25:02;19.60;99.90
66257;DHT22;53049;43.446;3.698;2023-06-10T04:27:28;19.60;99.90
66257;DHT22;53049;43.446;3.698;2023-06-10T04:29:54;19.60;99.90
66257;DHT22;53049;43.446;3.698;2023-06-10T04:32:20;19.60;99.90
66257;DHT22;53049;43.446;3.698;2023-06-10T04:34:45;19.70;99.90
66257;DHT22;53049;43.446;3.698;2023-06-10T04:37:11;19.70;99.90
66257;DHT22;53049;43.446;3.698;2023-06-10T04:39:37;19.70;99.90
66257;DHT22;53049;43.446;3.698;2023-06-10T04:42:02;19.70;99.90
66257;DHT22;53049;43.446;3.698;2023-06-10T04:44:28;19.70;99.90
66257;DHT22;53049;43.446;3.698;2023-06-10T04:46:54;19.70;99.90
66257;DHT22;53049;43.446;3.698;2023-06-10T04:49:21;19.70;99.90
66257;DHT22;53049;43.446;3.698;2023-06-10T04:51:46;19.70;99.90
66257;DHT22;53049;43.446;3.698;2023-06-10T04:54:12;19.70;99.90
66257;DHT22;53049;43.446;3.698;2023-06-10T04:56:37;19.70;99.90
66257;DHT22;53049;43.446;3.698;2023-06-10T04:59:04;19.80;99.90
66257;DHT22;53049;43.446;3.698;2023-06-10T05:01:30;19.80;99.90
66257;DHT22;53049;43.446;3.698;2023-06-10T05:03:55;19.80;99.90
66257;DHT22;53049;43.446;3.698;2023-06-10T05:06:21;19.70;99.90
66257;DHT22;53049;43.446;3.698;2023-06-10T05:08:47;19.70;99.90
66257;DHT22;53049;43.446;3.698;2023-06-10T05:11:12;19.70;99.90
66257;DHT22;53049;43.446;3.698;2023-06-10T05:13:38;19.80;99.90
66257;DHT22;53049;43.446;3.698;2023-06-10T05:16:05;19.80;99.90
66257;DHT22;53049;43.446;3.698;2023-06-10T05:18:33;19.70;99.90
66257;DHT22;53049;43.446;3.698;2023-06-10T05:20:59;19.80;99.90
66257;DHT22;53049;43.446;3.698;2023-06-10T05:23:25;19.80;99.90
66257;DHT22;53049;43.446;3.698;2023-06-10T05:25:50;19.90;99.90
66257;DHT22;53049;43.446;3.698;2023-06-10T05:28:16;19.90;99.90
66257;DHT22;53049;43.446;3.698;2023-06-10T05:30:42;19.90;99.90
66257;DHT22;53049;43.446;3.698;2023-06-10T05:33:07;19.90;99.90
66257;DHT22;53049;43.446;3.698;2023-06-10T05:35:33;19.90;99.90
66257;DHT22;53049;43.446;3.698;2023-06-10T05:37:58;19.90;99.90
66257;DHT22;53049;43.446;3.698;2023-06-10T05:40:24;19.90;99.90
66257;DHT22;53049;43.446;3.698;2023-06-10T05:42:50;19.90;99.90
66257;DHT22;53049;43.446;3.698;2023-06-10T05:45:16;19.90;99.90
66257;DHT22;53049;43.446;3.698;2023-06-10T05:47:42;19.90;99.90
66257;DHT22;53049;43.446;3.698;2023-06-10T05:50:08;19.90;99.90
66257;DHT22;53049;43.446;3.698;2023-06-10T05:52:34;19.90;99.90
66257;DHT22;53049;43.446;3.698;2023-06-10T05:55:01;19.90;99.90
66257;DHT22;53049;43.446;3.698;2023-06-10T05:57:27;19.90;99.90
66257;DHT22;53049;43.446;3.698;2023-06-10T05:59:53;19.90;99.90
66257;DHT22;53049;43.446;3.698;2023-06-10T06:02:18;19.80;99.90
66257;DHT22;53049;43.446;3.698;2023-06-10T06:04:44;19.80;99.90
66257;DHT22;53049;43.446;3.698;2023-06-10T06:07:10;19.80;99.90
66257;DHT22;53049;43.446;3.698;2023-06-10T06:09:35;19.80;99.90
66257;DHT22;53049;43.446;3.698;2023-06-10T06:12:01;19.80;99.90
66257;DHT22;53049;43.446;3.698;2023-06-10T06:14:30;19.80;99.90
66257;DHT22;53049;43.446;3.698;2023-06-10T06:16:55;19.80;99.90
66257;DHT22;53049;43.446;3.698;2023-06-10T06:19:21;19.80;99.90
66257;DHT22;53049;43.446;3.698;2023-06-10T06:21:47;19.80;99.90
66257;DHT22;53049;43.446;3.698;2023-06-10T06:24:13;19.80;99.90
66257;DHT22;53049;43.446;3.698;2023-06-10T06:26:39;19.80;99.90
66257;DHT22;53049;43.446;3.698;2023-06-10T06:29:04;19.80;99.90
66257;DHT22;53049;43.446;3.698;2023-06-10T06:31:30;19.80;99.90
66257;DHT22;53049;43.446;3.698;2023-06-10T06:33:56;19.90;99.90
66257;DHT22;53049;43.446;3.698;2023-06-10T06:36:24;19.90;99.90
66257;DHT22;53049;43.446;3.698;2023-06-10T06:38:50;19.90;99.90
66257;DHT22;53049;43.446;3.698;2023-06-10T06:41:16;19.90;99.90
66257;DHT22;53049;43.446;3.698;2023-06-10T06:43:41;20.00;99.90
66257;DHT22;53049;43.446;3.698;2023-06-10T06:46:08;20.00;99.90
66257;DHT22;53049;43.446;3.698;2023-06-10T06:48:34;20.10;99.90
66257;DHT22;53049;43.446;3.698;2023-06-10T06:51:01;20.10;99.90
66257;DHT22;53049;43.446;3.698;2023-06-10T06:53:27;20.10;99.90
66257;DHT22;53049;43.446;3.698;2023-06-10T06:55:52;20.20;99.90
66257;DHT22;53049;43.446;3.698;2023-06-10T06:58:18;20.20;69.10
66257;DHT22;53049;43.446;3.698;2023-06-10T07:00:44;20.30;2.10
66257;DHT22;53049;43.446;3.698;2023-06-10T07:03:10;20.30;1.00
66257;DHT22;53049;43.446;3.698;2023-06-10T07:05:35;20.40;1.00
66257;DHT22;53049;43.446;3.698;2023-06-10T07:08:01;20.50;1.00
66257;DHT22;53049;43.446;3.698;2023-06-10T07:10:28;20.50;1.00
66257;DHT22;53049;43.446;3.698;2023-06-10T07:12:53;20.70;1.00
66257;DHT22;53049;43.446;3.698;2023-06-10T07:15:20;20.80;99.90
66257;DHT22;53049;43.446;3.698;2023-06-10T07:17:45;21.00;99.90
66257;DHT22;53049;43.446;3.698;2023-06-10T07:20:11;21.40;99.90
66257;DHT22;53049;43.446;3.698;2023-06-10T07:22:37;21.90;99.90
66257;DHT22;53049;43.446;3.698;2023-06-10T07:25:05;22.50;99.90
66257;DHT22;53049;43.446;3.698;2023-06-10T07:27:31;23.00;1.00
66257;DHT22;53049;43.446;3.698;2023-06-10T07:29:56;23.50;1.00
66257;DHT22;53049;43.446;3.698;2023-06-10T07:32:22;23.90;1.00
66257;DHT22;53049;43.446;3.698;2023-06-10T07:34:49;24.30;99.90
66257;DHT22;53049;43.446;3.698;2023-06-10T07:37:15;24.90;99.90
66257;DHT22;53049;43.446;3.698;2023-06-10T07:39:40;25.50;99.90
66257;DHT22;53049;43.446;3.698;2023-06-10T07:42:08;26.00;99.90
66257;DHT22;53049;43.446;3.698;2023-06-10T07:44:34;26.40;99.90
66257;DHT22;53049;43.446;3.698;2023-06-10T07:47:00;26.60;99.90
66257;DHT22;53049;43.446;3.698;2023-06-10T07:49:25;27.00;99.90
66257;DHT22;53049;43.446;3.698;2023-06-10T07:51:53;27.10;99.90
66257;DHT22;53049;43.446;3.698;2023-06-10T07:54:18;27.30;99.90
66257;DHT22;53049;43.446;3.698;2023-06-10T07:56:47;28.00;99.90
66257;DHT22;53049;43.446;3.698;2023-06-10T07:59:14;28.10;99.90
66257;DHT22;53049;43.446;3.698;2023-06-10T08:01:39;27.40;99.90
66257;DHT22;53049;43.446;3.698;2023-06-10T08:04:06;26.20;99.90
66257;DHT22;53049;43.446;3.698;2023-06-10T08:06:32;25.50;99.90
66257;DHT22;53049;43.446;3.698;2023-06-10T08:08:57;25.10;99.90
66257;DHT22;53049;43.446;3.698;2023-06-10T08:11:23;24.50;99.90
66257;DHT22;53049;43.446;3.698;2023-06-10T08:13:49;24.10;99.90
66257;DHT22;53049;43.446;3.698;2023-06-10T08:16:14;23.80;99.90
66257;DHT22;53049;43.446;3.698;2023-06-10T08:18:40;23.40;99.90
66257;DHT22;53049;43.446;3.698;2023-06-10T08:21:06;23.30;99.90
66257;DHT22;53049;43.446;3.698;2023-06-10T08:23:32;25.30;99.90
66257;DHT22;53049;43.446;3.698;2023-06-10T08:25:57;25.60;99.90
66257;DHT22;53049;43.446;3.698;2023-06-10T08:28:23;25.50;99.90
66257;DHT22;53049;43.446;3.698;2023-06-10T08:30:49;24.70;99.90
66257;DHT22;53049;43.446;3.698;2023-06-10T08:33:15;24.50;99.90
66257;DHT22;53049;43.446;3.698;2023-06-10T08:35:40;24.80;99.90
66257;DHT22;53049;43.446;3.698;2023-06-10T08:38:06;24.40;99.90
66257;DHT22;53049;43.446;3.698;2023-06-10T08:40:33;24.20;99.90
66257;DHT22;53049;43.446;3.698;2023-06-10T08:43:08;24.40;99.90
66257;DHT22;53049;43.446;3.698;2023-06-10T08:45:36;24.80;99.90
66257;DHT22;53049;43.446;3.698;2023-06-10T08:48:03;25.60;99.90
66257;DHT22;53049;43.446;3.698;2023-06-10T08:50:36;26.40;99.90
66257;DHT22;53049;43.446;3.698;2023-06-10T08:53:05;26.90;99.90
66257;DHT22;53049;43.446;3.698;2023-06-10T08:55:33;26.30;99.90
66257;DHT22;53049;43.446;3.698;2023-06-10T08:58:01;26.70;99.90
66257;DHT22;53049;43.446;3.698;2023-06-10T09:00:28;26.90;99.90
66257;DHT22;53049;43.446;3.698;2023-06-10T09:02:55;26.30;99.90
66257;DHT22;53049;43.446;3.698;2023-06-10T09:05:21;26.70;99.90
66257;DHT22;53049;43.446;3.698;2023-06-10T09:07:48;27.80;99.90
66257;DHT22;53049;43.446;3.698;2023-06-10T09:10:14;27.80;99.90
66257;DHT22;53049;43.446;3.698;2023-06-10T09:12:40;27.10;99.90
66257;DHT22;53049;43.446;3.698;2023-06-10T09:15:07;26.90;99.90
66257;DHT22;53049;43.446;3.698;2023-06-10T09:17:34;27.00;99.90
66257;DHT22;53049;43.446;3.698;2023-06-10T09:20:01;27.20;99.90
66257;DHT22;53049;43.446;3.698;2023-06-10T09:22:28;27.70;99.90
66257;DHT22;53049;43.446;3.698;2023-06-10T09:25:07;28.90;99.90
66257;DHT22;53049;43.446;3.698;2023-06-10T09:27:46;29.30;99.90
66257;DHT22;53049;43.446;3.698;2023-06-10T09:30:34;29.60;99.90
66257;DHT22;53049;43.446;3.698;2023-06-10T09:33:02;29.20;99.90
66257;DHT22;53049;43.446;3.698;2023-06-10T09:35:30;28.90;99.90
66257;DHT22;53049;43.446;3.698;2023-06-10T09:37:57;27.90;99.90
66257;DHT22;53049;43.446;3.698;2023-06-10T09:40:23;27.20;99.90
66257;DHT22;53049;43.446;3.698;2023-06-10T09:43:15;26.80;99.90
66257;DHT22;53049;43.446;3.698;2023-06-10T09:45:40;26.40;99.90
66257;DHT22;53049;43.446;3.698;2023-06-10T09:48:06;25.90;99.90
66257;DHT22;53049;43.446;3.698;2023-06-10T09:50:42;25.60;99.90
66257;DHT22;53049;43.446;3.698;2023-06-10T09:53:09;26.40;99.90
66257;DHT22;53049;43.446;3.698;2023-06-10T09:55:38;27.40;99.90
66257;DHT22;53049;43.446;3.698;2023-06-10T09:58:03;28.50;99.90
66257;DHT22;53049;43.446;3.698;2023-06-10T10:00:34;28.50;99.90
66257;DHT22;53049;43.446;3.698;2023-06-10T10:03:00;28.20;99.90
66257;DHT22;53049;43.446;3.698;2023-06-10T10:05:27;28.30;99.90
66257;DHT22;53049;43.446;3.698;2023-06-10T10:07:53;28.30;99.90
66257;DHT22;53049;43.446;3.698;2023-06-10T10:10:21;28.90;99.90
66257;DHT22;53049;43.446;3.698;2023-06-10T10:12:50;29.10;99.90
66257;DHT22;53049;43.446;3.698;2023-06-10T10:15:17;29.40;99.90
66257;DHT22;53049;43.446;3.698;2023-06-10T10:18:07;29.50;99.90
66257;DHT22;53049;43.446;3.698;2023-06-10T10:20:48;29.60;99.90
66257;DHT22;53049;43.446;3.698;2023-06-10T10:23:21;29.50;99.90
66257;DHT22;53049;43.446;3.698;2023-06-10T10:25:52;29.20;99.90
66257;DHT22;53049;43.446;3.698;2023-06-10T10:28:20;29.20;99.90
66257;DHT22;53049;43.446;3.698;2023-06-10T10:30:51;28.40;99.90
66257;DHT22;53049;43.446;3.698;2023-06-10T10:33:59;28.50;99.90
66257;DHT22;53049;43.446;3.698;2023-06-10T10:36:28;28.70;99.90
66257;DHT22;53049;43.446;3.698;2023-06-10T10:38:54;29.20;99.90
66257;DHT22;53049;43.446;3.698;2023-06-10T10:41:20;28.80;99.90
66257;DHT22;53049;43.446;3.698;2023-06-10T10:43:46;28.00;99.90
66257;DHT22;53049;43.446;3.698;2023-06-10T10:46:16;27.70;99.90
66257;DHT22;53049;43.446;3.698;2023-06-10T10:48:46;27.30;99.90
66257;DHT22;53049;43.446;3.698;2023-06-10T10:51:17;27.20;99.90
66257;DHT22;53049;43.446;3.698;2023-06-10T10:53:42;27.10;99.90
66257;DHT22;53049;43.446;3.698;2023-06-10T10:56:14;27.00;99.90
66257;DHT22;53049;43.446;3.698;2023-06-10T10:58:40;27.00;99.90
66257;DHT22;53049;43.446;3.698;2023-06-10T11:01:14;26.90;99.90
66257;DHT22;53049;43.446;3.698;2023-06-10T11:03:46;26.70;99.90
66257;DHT22;53049;43.446;3.698;2023-06-10T11:06:16;26.50;99.90
66257;DHT22;53049;43.446;3.698;2023-06-10T11:11:27;26.50;99.90
66257;DHT22;53049;43.446;3.698;2023-06-10T11:16:29;26.60;99.90
66257;DHT22;53049;43.446;3.698;2023-06-10T11:18:56;26.60;99.90
66257;DHT22;53049;43.446;3.698;2023-06-10T11:21:25;26.70;99.90
66257;DHT22;53049;43.446;3.698;2023-06-10T11:23:53;26.60;99.90
66257;DHT22;53049;43.446;3.698;2023-06-10T11:31:43;26.60;99.90
66257;DHT22;53049;43.446;3.698;2023-06-10T11:34:09;26.50;99.90
66257;DHT22;53049;43.446;3.698;2023-06-10T11:36:40;26.50;99.90
66257;DHT22;53049;43.446;3.698;2023-06-10T11:39:10;26.50;99.90
66257;DHT22;53049;43.446;3.698;2023-06-10T11:41:38;26.60;99.90
66257;DHT22;53049;43.446;3.698;2023-06-10T11:44:08;26.30;99.90
66257;DHT22;53049;43.446;3.698;2023-06-10T11:46:34;26.20;99.90
66257;DHT22;53049;43.446;3.698;2023-06-10T11:49:01;26.20;99.90
66257;DHT22;53049;43.446;3.698;2023-06-10T11:51:32;26.20;99.90
66257;DHT22;53049;43.446;3.698;2023-06-10T11:53:58;26.10;99.90
66257;DHT22;53049;43.446;3.698;2023-06-10T11:56:28;26.10;99.90
66257;DHT22;53049;43.446;3.698;2023-06-10T11:58:58;26.10;99.90
66257;DHT22;53049;43.446;3.698;2023-06-10T12:01:26;26.20;99.90
66257;DHT22;53049;43.446;3.698;2023-06-10T12:04:07;26.20;99.90
66257;DHT22;53049;43.446;3.698;2023-06-10T12:06:44;26.20;99.90
66257;DHT22;53049;43.446;3.698;2023-06-10T12:11:51;26.30;99.90
66257;DHT22;53049;43.446;3.698;2023-06-10T12:19:59;26.40;99.90
66257;DHT22;53049;43.446;3.698;2023-06-10T12:22:26;26.40;99.90
66257;DHT22;53049;43.446;3.698;2023-06-10T12:25:05;26.40;99.90
66257;DHT22;53049;43.446;3.698;2023-06-10T12:27:35;26.30;99.90
66257;DHT22;53049;43.446;3.698;2023-06-10T12:30:03;26.10;99.90
66257;DHT22;53049;43.446;3.698;2023-06-10T12:35:05;26.30;99.90
66257;DHT22;53049;43.446;3.698;2023-06-10T12:37:32;26.30;99.90
66257;DHT22;53049;43.446;3.698;2023-06-10T12:40:01;26.20;99.90
66257;DHT22;53049;43.446;3.698;2023-06-10T12:42:29;26.10;99.90
66257;DHT22;53049;43.446;3.698;2023-06-10T12:44:56;26.00;99.90
66257;DHT22;53049;43.446;3.698;2023-06-10T12:47:34;26.20;99.90
66257;DHT22;53049;43.446;3.698;2023-06-10T12:50:07;26.10;99.90
66257;DHT22;53049;43.446;3.698;2023-06-10T12:52:33;26.30;99.90
66257;DHT22;53049;43.446;3.698;2023-06-10T12:54:59;26.30;99.90
66257;DHT22;53049;43.446;3.698;2023-06-10T12:57:26;26.30;99.90
66257;DHT22;53049;43.446;3.698;2023-06-10T12:59:51;26.20;99.90
66257;DHT22;53049;43.446;3.698;2023-06-10T13:02:26;26.30;99.90
66257;DHT22;53049;43.446;3.698;2023-06-10T13:04:52;26.30;99.90
66257;DHT22;53049;43.446;3.698;2023-06-10T13:07:17;26.40;99.90
66257;DHT22;53049;43.446;3.698;2023-06-10T13:09:43;26.40;99.90
66257;DHT22;53049;43.446;3.698;2023-06-10T13:12:09;26.30;99.90
66257;DHT22;53049;43.446;3.698;2023-06-10T13:14:36;26.30;99.90
66257;DHT22;53049;43.446;3.698;2023-06-10T13:17:03;26.40;99.90
66257;DHT22;53049;43.446;3.698;2023-06-10T13:19:31;26.40;99.90
66257;DHT22;53049;43.446;3.698;2023-06-10T13:21:57;26.30;99.90
66257;DHT22;53049;43.446;3.698;2023-06-10T13:24:23;26.20;99.90
66257;DHT22;53049;43.446;3.698;2023-06-10T13:26:48;26.20;99.90
66257;DHT22;53049;43.446;3.698;2023-06-10T13:29:14;26.30;99.90
66257;DHT22;53049;43.446;3.698;2023-06-10T13:31:40;26.30;99.90
66257;DHT22;53049;43.446;3.698;2023-06-10T13:34:06;26.40;99.90
66257;DHT22;53049;43.446;3.698;2023-06-10T13:36:32;26.40;99.90
66257;DHT22;53049;43.446;3.698;2023-06-10T13:38:57;26.40;99.90
66257;DHT22;53049;43.446;3.698;2023-06-10T13:41:23;26.40;99.90
66257;DHT22;53049;43.446;3.698;2023-06-10T13:43:50;26.40;99.90
66257;DHT22;53049;43.446;3.698;2023-06-10T13:46:15;26.40;99.90
66257;DHT22;53049;43.446;3.698;2023-06-10T13:48:41;26.50;99.90
66257;DHT22;53049;43.446;3.698;2023-06-10T13:51:07;26.50;99.90
66257;DHT22;53049;43.446;3.698;2023-06-10T13:53:34;26.40;99.90
66257;DHT22;53049;43.446;3.698;2023-06-10T13:56:00;26.30;99.90
66257;DHT22;53049;43.446;3.698;2023-06-10T13:58:26;26.20;99.90
66257;DHT22;53049;43.446;3.698;2023-06-10T14:00:51;26.20;99.90
66257;DHT22;53049;43.446;3.698;2023-06-10T14:03:20;26.20;99.90
66257;DHT22;53049;43.446;3.698;2023-06-10T14:05:46;26.40;99.90
66257;DHT22;53049;43.446;3.698;2023-06-10T14:08:11;26.40;99.90
66257;DHT22;53049;43.446;3.698;2023-06-10T14:10:37;26.50;99.90
66257;DHT22;53049;43.446;3.698;2023-06-10T14:13:03;26.60;99.90
66257;DHT22;53049;43.446;3.698;2023-06-10T14:15:28;26.30;99.90
66257;DHT22;53049;43.446;3.698;2023-06-10T14:17:55;26.10;99.90
66257;DHT22;53049;43.446;3.698;2023-06-10T14:20:20;26.20;99.90
66257;DHT22;53049;43.446;3.698;2023-06-10T14:22:46;26.10;99.90
66257;DHT22;53049;43.446;3.698;2023-06-10T14:25:12;26.00;99.90
66257;DHT22;53049;43.446;3.698;2023-06-10T14:27:39;26.10;99.90
66257;DHT22;53049;43.446;3.698;2023-06-10T14:30:06;25.90;99.90
66257;DHT22;53049;43.446;3.698;2023-06-10T14:32:32;25.80;99.90
66257;DHT22;53049;43.446;3.698;2023-06-10T14:34:57;25.60;99.90
66257;DHT22;53049;43.446;3.698;2023-06-10T14:37:23;25.50;99.90
66257;DHT22;53049;43.446;3.698;2023-06-10T14:39:49;25.40;99.90
66257;DHT22;53049;43.446;3.698;2023-06-10T14:42:16;25.30;99.90
66257;DHT22;53049;43.446;3.698;2023-06-10T14:44:42;25.30;99.90
66257;DHT22;53049;43.446;3.698;2023-06-10T14:47:07;25.40;99.90
66257;DHT22;53049;43.446;3.698;2023-06-10T14:49:33;25.60;99.90
66257;DHT22;53049;43.446;3.698;2023-06-10T14:51:59;25.80;99.90
66257;DHT22;53049;43.446;3.698;2023-06-10T14:54:24;25.90;99.90
66257;DHT22;53049;43.446;3.698;2023-06-10T14:56:50;26.00;99.90
66257;DHT22;53049;43.446;3.698;2023-06-10T14:59:15;25.90;99.90
66257;DHT22;53049;43.446;3.698;2023-06-10T15:01:41;25.70;99.90
66257;DHT22;53049;43.446;3.698;2023-06-10T15:04:07;25.50;99.90
66257;DHT22;53049;43.446;3.698;2023-06-10T15:06:33;25.20;99.90
66257;DHT22;53049;43.446;3.698;2023-06-10T15:08:58;25.00;99.90
66257;DHT22;53049;43.446;3.698;2023-06-10T15:11:24;25.10;99.90
66257;DHT22;53049;43.446;3.698;2023-06-10T15:13:49;25.10;99.90
66257;DHT22;53049;43.446;3.698;2023-06-10T15:16:15;25.10;99.90
66257;DHT22;53049;43.446;3.698;2023-06-10T15:18:41;25.20;99.90
66257;DHT22;53049;43.446;3.698;2023-06-10T15:21:06;25.30;99.90
66257;DHT22;53049;43.446;3.698;2023-06-10T15:23:32;25.40;99.90
66257;DHT22;53049;43.446;3.698;2023-06-10T15:25:58;25.40;99.90
66257;DHT22;53049;43.446;3.698;2023-06-10T15:28:23;25.50;99.90
66257;DHT22;53049;43.446;3.698;2023-06-10T15:30:49;25.50;99.90
66257;DHT22;53049;43.446;3.698;2023-06-10T15:33:15;25.70;99.90
66257;DHT22;53049;43.446;3.698;2023-06-10T15:35:40;25.70;99.90
66257;DHT22;53049;43.446;3.698;2023-06-10T15:38:06;25.60;99.90
66257;DHT22;53049;43.446;3.698;2023-06-10T15:40:31;25.60;99.90
66257;DHT22;53049;43.446;3.698;2023-06-10T15:42:57;25.70;99.90
66257;DHT22;53049;43.446;3.698;2023-06-10T15:45:24;25.70;99.90
66257;DHT22;53049;43.446;3.698;2023-06-10T15:47:50;25.60;99.90
66257;DHT22;53049;43.446;3.698;2023-06-10T15:50:19;25.50;99.90
66257;DHT22;53049;43.446;3.698;2023-06-10T15:52:48;25.50;99.90
66257;DHT22;53049;43.446;3.698;2023-06-10T15:55:13;25.40;99.90